Time;durP1;ratioP1;P1;durP2;ratioP2;P2;SDS_P1;SDS_P2;PMS_P1;PMS_P2;Temp;Humidity;BMP_temperature;BMP_pressure;BME280_temperature;BME280_humidity;BME280_pressure;Samples;Min_cycle;Max_cycle;Signal;HPM_P1;HPM_P2
2023/12/15 00:01:51;;;;;;;11.77;2.40;;;29.20;77.30;;;;;;5047213;28;20036;-67
2023/12/15 00:04:18;;;;;;;12.48;2.30;;;29.10;76.50;;;;;;5048233;28;20055;-68
2023/12/15 00:06:46;;;;;;;11.70;2.05;;;29.00;75.70;;;;;;5051366;28;20033;-69
2023/12/15 00:09:13;;;;;;;13.27;2.58;;;28.50;76.80;;;;;;5051341;28;20503;-71
2023/12/15 00:11:41;;;;;;;13.82;2.20;;;28.80;76.80;;;;;;5047544;28;20714;-68
2023/12/15 00:14:08;;;;;;;14.88;3.40;;;29.40;75.90;;;;;;5050847;28;20119;-68
2023/12/15 00:16:35;;;;;;;9.20;2.05;;;30.00;75.00;;;;;;5046238;28;20749;-69
2023/12/15 00:19:03;;;;;;;11.43;1.70;;;30.70;75.00;;;;;;5044872;28;20052;-69
2023/12/15 00:21:30;;;;;;;11.88;2.20;;;31.40;71.70;;;;;;5051486;28;20025;-69
2023/12/15 00:23:57;;;;;;;8.40;2.22;;;31.60;70.80;;;;;;5047767;28;20044;-68
2023/12/15 00:26:25;;;;;;;11.93;2.22;;;31.50;70.20;;;;;;5045191;28;20047;-67
2023/12/15 00:28:52;;;;;;;9.43;1.90;;;31.10;70.10;;;;;;5042977;28;20025;-68
2023/12/15 00:31:22;;;;;;;14.05;2.30;;;30.50;71.10;;;;;;5031121;28;20044;-68
2023/12/15 00:33:50;;;;;;;10.35;2.58;;;30.30;71.50;;;;;;5044571;28;20025;-68
2023/12/15 00:36:17;;;;;;;11.35;2.08;;;30.20;71.10;;;;;;5045109;28;20059;-68
2023/12/15 00:38:44;;;;;;;11.27;2.58;;;30.40;71.50;;;;;;5048455;28;20079;-68
2023/12/15 00:41:12;;;;;;;5.50;1.90;;;30.50;69.30;;;;;;5044759;28;20090;-69
2023/12/15 00:43:39;;;;;;;5.20;1.90;;;31.00;71.00;;;;;;5047933;28;20021;-69
2023/12/15 00:46:07;;;;;;;8.95;1.80;;;31.20;68.40;;;;;;5050110;28;20083;-69
2023/12/15 00:48:34;;;;;;;9.63;2.13;;;30.70;69.50;;;;;;5049457;28;20397;-70
2023/12/15 00:51:01;;;;;;;12.70;2.28;;;30.00;71.30;;;;;;5047878;28;20041;-70
2023/12/15 00:53:32;;;;;;;10.45;2.28;;;29.90;71.80;;;;;;5050955;28;20051;-70
2023/12/15 00:56:02;;;;;;;7.43;1.98;;;30.00;71.50;;;;;;5028904;28;20462;-69
2023/12/15 00:58:30;;;;;;;10.63;2.05;;;30.40;72.80;;;;;;5049718;28;20017;-69
2023/12/15 01:00:57;;;;;;;8.10;2.00;;;30.90;71.70;;;;;;5050471;28;20033;-69
2023/12/15 01:03:24;;;;;;;13.50;2.58;;;30.50;71.00;;;;;;5055979;28;20417;-69
2023/12/15 01:05:52;;;;;;;9.73;2.88;;;30.10;71.70;;;;;;5052533;28;20037;-70
2023/12/15 01:08:19;;;;;;;13.95;2.20;;;30.50;71.50;;;;;;5058872;28;20032;-70
2023/12/15 01:10:46;;;;;;;9.82;2.10;;;31.30;70.00;;;;;;5033694;28;20033;-69
2023/12/15 01:13:14;;;;;;;10.05;2.50;;;31.90;68.70;;;;;;5055929;28;20127;-69
2023/12/15 01:15:41;;;;;;;10.50;2.00;;;32.50;68.60;;;;;;5049503;28;20028;-70
2023/12/15 01:18:08;;;;;;;9.25;2.38;;;32.10;68.20;;;;;;5053818;28;20025;-70
2023/12/15 01:20:36;;;;;;;11.57;2.60;;;32.00;68.30;;;;;;5056137;28;20020;-70
2023/12/15 01:23:04;;;;;;;13.05;2.20;;;32.30;67.80;;;;;;5050459;28;20028;-69
2023/12/15 01:25:31;;;;;;;8.68;2.50;;;32.10;66.80;;;;;;5047878;28;20120;-69
2023/12/15 01:27:58;;;;;;;9.55;2.13;;;32.00;66.50;;;;;;5050888;28;20033;-68
2023/12/15 01:30:26;;;;;;;7.35;2.10;;;32.10;66.40;;;;;;5057525;28;20482;-69
2023/12/15 01:32:53;;;;;;;11.60;2.50;;;32.10;66.60;;;;;;5055756;28;20033;-69
2023/12/15 01:35:22;;;;;;;8.48;2.63;;;32.70;65.50;;;;;;5050593;28;20052;-69
2023/12/15 01:37:49;;;;;;;8.30;2.03;;;32.90;64.50;;;;;;5044733;28;20029;-69
2023/12/15 01:40:16;;;;;;;13.25;2.28;;;33.30;63.60;;;;;;5053377;28;20066;-69
2023/12/15 01:42:44;;;;;;;8.43;2.20;;;33.50;63.70;;;;;;5051125;28;20031;-69
2023/12/15 01:45:11;;;;;;;14.80;2.33;;;33.30;62.60;;;;;;5052678;28;20047;-69
2023/12/15 01:47:39;;;;;;;11.57;2.50;;;32.90;62.40;;;;;;5027779;28;20127;-68
2023/12/15 01:50:08;;;;;;;9.82;2.10;;;33.10;61.30;;;;;;5052404;28;20748;-70
2023/12/15 01:52:36;;;;;;;9.25;2.40;;;32.90;63.00;;;;;;5049551;28;20106;-69
2023/12/15 01:55:03;;;;;;;10.95;2.53;;;33.30;63.30;;;;;;5050328;28;20025;-69
2023/12/15 01:57:31;;;;;;;9.02;2.03;;;33.30;62.70;;;;;;5051226;28;20043;-69
2023/12/15 02:00:00;;;;;;;10.63;2.17;;;33.40;63.80;;;;;;5049215;28;20031;-69
2023/12/15 02:02:27;;;;;;;10.25;1.90;;;33.30;62.00;;;;;;5047218;28;20119;-69
2023/12/15 02:04:55;;;;;;;9.68;2.10;;;32.40;62.60;;;;;;5047384;28;20094;-69
2023/12/15 02:07:22;;;;;;;10.75;2.20;;;32.60;63.80;;;;;;5047153;28;20036;-70
2023/12/15 02:09:49;;;;;;;6.63;1.73;;;33.00;63.00;;;;;;5045968;28;20110;-71
2023/12/15 02:12:17;;;;;;;12.13;1.88;;;33.70;62.70;;;;;;5047750;28;20392;-70
2023/12/15 02:14:45;;;;;;;12.55;2.72;;;34.10;62.10;;;;;;5051930;28;20052;-70
2023/12/15 02:17:13;;;;;;;11.95;2.15;;;33.10;62.40;;;;;;5050383;28;20425;-70
2023/12/15 02:19:40;;;;;;;14.65;2.78;;;32.90;63.50;;;;;;5047464;28;20060;-69
2023/12/15 02:22:08;;;;;;;18.80;3.20;;;33.10;64.10;;;;;;5027009;28;20135;-68
2023/12/15 02:24:41;;;;;;;13.98;2.80;;;33.40;63.70;;;;;;5051943;28;20086;-69
2023/12/15 02:27:09;;;;;;;11.60;2.28;;;33.80;62.60;;;;;;5029524;28;20409;-69
2023/12/15 02:29:36;;;;;;;11.48;2.05;;;34.00;62.00;;;;;;5047367;28;20056;-70
2023/12/15 02:32:04;;;;;;;6.20;1.83;;;34.10;61.20;;;;;;5056326;28;20032;-70
2023/12/15 02:34:31;;;;;;;11.52;2.38;;;34.10;60.00;;;;;;5051810;28;20028;-72
2023/12/15 02:36:59;;;;;;;7.68;2.20;;;33.70;60.90;;;;;;5047814;28;20032;-67
2023/12/15 02:39:27;;;;;;;13.07;1.80;;;34.00;61.00;;;;;;5058416;28;20039;-70
2023/12/15 02:41:55;;;;;;;9.88;2.30;;;33.70;62.00;;;;;;5047429;28;20873;-68
2023/12/15 02:44:22;;;;;;;15.05;2.55;;;32.90;62.00;;;;;;5050857;28;20041;-70
2023/12/15 02:46:54;;;;;;;12.30;2.35;;;32.10;63.30;;;;;;5048363;28;20065;-69
2023/12/15 02:49:21;;;;;;;13.30;2.58;;;31.80;64.50;;;;;;5049454;28;20470;-72
2023/12/15 02:51:49;;;;;;;10.00;1.92;;;31.80;65.20;;;;;;5056360;28;20508;-69
2023/12/15 02:54:17;;;;;;;10.93;2.38;;;32.60;65.40;;;;;;5057993;28;20036;-70
2023/12/15 02:56:44;;;;;;;13.80;2.42;;;33.20;63.60;;;;;;5054933;28;20021;-69
2023/12/15 02:59:12;;;;;;;10.05;2.17;;;33.40;63.10;;;;;;5048024;28;20025;-70
2023/12/15 03:01:39;;;;;;;8.63;1.60;;;33.20;63.00;;;;;;5051442;28;20350;-70
2023/12/15 03:04:07;;;;;;;10.23;1.90;;;33.10;63.70;;;;;;5049874;28;20479;-70
2023/12/15 03:06:34;;;;;;;6.32;2.00;;;32.50;64.00;;;;;;5054775;28;20029;-70
2023/12/15 03:09:02;;;;;;;8.45;2.30;;;32.30;65.20;;;;;;5056427;28;20086;-70
2023/12/15 03:11:29;;;;;;;10.38;1.70;;;32.80;66.00;;;;;;5052318;28;20056;-70
2023/12/15 03:13:57;;;;;;;10.20;1.42;;;33.30;63.60;;;;;;5050888;28;20026;-70
2023/12/15 03:16:24;;;;;;;14.55;2.88;;;33.50;62.50;;;;;;5053906;28;20025;-69
2023/12/15 03:19:01;;;;;;;11.60;1.88;;;33.90;63.50;;;;;;5050734;28;20108;-71
2023/12/15 03:21:28;;;;;;;10.48;2.30;;;33.70;62.00;;;;;;5048104;28;20489;-69
2023/12/15 03:23:56;;;;;;;9.90;1.83;;;33.50;62.70;;;;;;5052237;28;20084;-69
2023/12/15 03:26:23;;;;;;;5.35;1.48;;;33.50;62.70;;;;;;5047344;28;20120;-69
2023/12/15 03:28:51;;;;;;;9.95;1.83;;;33.50;62.80;;;;;;5047474;28;20477;-69
2023/12/15 03:31:18;;;;;;;10.88;2.25;;;33.20;63.30;;;;;;5053523;28;20417;-71
2023/12/15 03:33:46;;;;;;;6.05;1.55;;;32.60;64.20;;;;;;5048169;28;20154;-70
2023/12/15 03:36:13;;;;;;;18.90;2.35;;;32.40;65.00;;;;;;5051312;28;20021;-69
2023/12/15 03:38:41;;;;;;;5.50;1.52;;;32.50;65.70;;;;;;5047665;28;20082;-68
2023/12/15 03:41:12;;;;;;;13.77;2.22;;;32.80;64.70;;;;;;5044437;28;20028;-68
2023/12/15 03:43:40;;;;;;;11.90;2.00;;;32.90;64.00;;;;;;5028267;28;20040;-68
2023/12/15 03:46:07;;;;;;;8.70;2.08;;;32.90;64.30;;;;;;5045019;28;20072;-67
2023/12/15 03:48:35;;;;;;;8.88;2.13;;;33.00;64.60;;;;;;5042487;28;20033;-69
2023/12/15 03:51:03;;;;;;;11.85;1.73;;;32.90;63.60;;;;;;5047390;28;20130;-69
2023/12/15 03:53:30;;;;;;;12.15;1.92;;;32.10;65.20;;;;;;5041047;28;20064;-70
2023/12/15 03:55:58;;;;;;;11.05;2.00;;;31.90;66.40;;;;;;5042676;28;20475;-68
2023/12/15 03:58:25;;;;;;;17.23;2.35;;;32.40;65.70;;;;;;5047628;28;22088;-69
2023/12/15 04:00:53;;;;;;;13.82;2.10;;;32.20;65.80;;;;;;5047688;28;20028;-69
2023/12/15 04:03:20;;;;;;;11.02;2.10;;;32.30;65.80;;;;;;5051038;28;20115;-69
2023/12/15 04:05:48;;;;;;;7.13;1.90;;;32.50;65.50;;;;;;5049423;28;20512;-69
2023/12/15 04:08:16;;;;;;;14.60;2.38;;;32.40;66.20;;;;;;5046782;28;20069;-69
2023/12/15 04:10:43;;;;;;;12.18;1.88;;;32.30;65.60;;;;;;5052268;28;20031;-70
2023/12/15 04:13:11;;;;;;;23.67;2.85;;;32.10;65.50;;;;;;5041956;28;20583;-68
2023/12/15 04:15:38;;;;;;;9.07;2.03;;;32.00;65.90;;;;;;5050405;28;20120;-68
2023/12/15 04:18:07;;;;;;;11.43;2.75;;;31.70;66.20;;;;;;5054604;28;20033;-69
2023/12/15 04:20:34;;;;;;;9.32;1.80;;;31.90;66.90;;;;;;5058590;28;20044;-68
2023/12/15 04:23:11;;;;;;;13.32;2.40;;;31.70;66.30;;;;;;5051069;28;20035;-70
2023/12/15 04:25:38;;;;;;;12.48;2.17;;;32.00;66.40;;;;;;5052828;28;20047;-68
2023/12/15 04:28:06;;;;;;;11.45;2.30;;;32.00;66.10;;;;;;5059082;28;20119;-70
2023/12/15 04:30:33;;;;;;;6.80;2.03;;;31.90;66.70;;;;;;5051787;28;20043;-70
2023/12/15 04:33:01;;;;;;;12.82;2.47;;;31.90;66.20;;;;;;5057248;28;20036;-69
2023/12/15 04:35:28;;;;;;;10.68;2.40;;;32.10;66.50;;;;;;5057201;28;20039;-67
2023/12/15 04:38:01;;;;;;;12.45;2.05;;;32.10;66.00;;;;;;5057879;28;20408;-70
2023/12/15 04:40:29;;;;;;;9.07;1.90;;;31.90;66.10;;;;;;5057755;28;20035;-69
2023/12/15 04:42:57;;;;;;;10.63;2.38;;;31.80;66.40;;;;;;5058397;28;20066;-69
2023/12/15 04:45:24;;;;;;;13.45;2.88;;;31.70;66.40;;;;;;5029884;28;20045;-68
2023/12/15 04:47:53;;;;;;;13.90;2.38;;;31.40;66.90;;;;;;5056905;28;20029;-69
2023/12/15 04:50:21;;;;;;;8.30;2.17;;;31.20;67.00;;;;;;5029871;28;20052;-69
2023/12/15 04:52:53;;;;;;;6.57;1.98;;;31.30;67.40;;;;;;5059667;28;20055;-69
2023/12/15 04:55:21;;;;;;;9.32;2.03;;;31.10;67.20;;;;;;5052451;28;20473;-69
2023/12/15 04:57:49;;;;;;;8.02;1.80;;;31.10;67.80;;;;;;5055584;28;20063;-69
2023/12/15 05:00:16;;;;;;;9.35;2.13;;;31.30;67.20;;;;;;5050400;28;20031;-69
2023/12/15 05:02:44;;;;;;;12.43;2.00;;;31.20;67.20;;;;;;5053218;28;20083;-69
2023/12/15 05:05:11;;;;;;;10.10;2.13;;;31.30;67.90;;;;;;5050658;28;20087;-68
2023/12/15 05:07:39;;;;;;;7.68;1.90;;;31.30;67.40;;;;;;5054152;28;20029;-70
2023/12/15 05:10:08;;;;;;;7.88;1.83;;;31.30;67.20;;;;;;5054747;28;20021;-70
2023/12/15 05:12:36;;;;;;;9.27;2.05;;;31.30;67.30;;;;;;5054361;28;20025;-70
2023/12/15 05:15:08;;;;;;;13.18;1.83;;;31.20;67.70;;;;;;5052667;28;20410;-69
2023/12/15 05:17:35;;;;;;;10.45;1.90;;;31.20;67.80;;;;;;5048976;28;20021;-70
2023/12/15 05:20:13;;;;;;;15.60;2.28;;;31.20;67.70;;;;;;5048987;28;20025;-69
2023/12/15 05:22:41;;;;;;;11.75;2.10;;;31.40;67.30;;;;;;5049097;28;20089;-69
2023/12/15 05:25:09;;;;;;;15.65;2.03;;;31.30;66.60;;;;;;5051132;28;20383;-70
2023/12/15 05:27:39;;;;;;;11.57;2.38;;;31.10;67.00;;;;;;5048700;28;20032;-70
2023/12/15 05:30:07;;;;;;;14.25;2.40;;;30.90;67.30;;;;;;5050154;28;20033;-70
2023/12/15 05:32:35;;;;;;;14.82;2.38;;;30.40;67.70;;;;;;5035592;28;20032;-70
2023/12/15 05:35:03;;;;;;;9.30;1.75;;;30.30;68.40;;;;;;5048834;28;20031;-70
2023/12/15 05:37:30;;;;;;;16.13;2.15;;;30.40;68.90;;;;;;5044322;28;20032;-71
2023/12/15 05:39:58;;;;;;;12.45;2.15;;;30.40;68.70;;;;;;5049519;28;20127;-70
2023/12/15 05:42:40;;;;;;;10.95;1.92;;;30.50;68.60;;;;;;5049915;28;20515;-69
2023/12/15 05:45:08;;;;;;;10.07;1.77;;;30.20;68.80;;;;;;5044534;28;20057;-70
2023/12/15 05:47:37;;;;;;;12.52;2.72;;;30.40;68.80;;;;;;5049918;28;20033;-69
2023/12/15 05:50:05;;;;;;;15.77;2.22;;;30.50;68.60;;;;;;5052874;28;20059;-69
2023/12/15 05:52:33;;;;;;;10.95;1.90;;;30.60;68.10;;;;;;5050215;28;20024;-69
2023/12/15 05:55:01;;;;;;;9.27;1.80;;;30.30;68.10;;;;;;5032213;28;20035;-69
2023/12/15 05:57:28;;;;;;;10.25;1.90;;;30.20;68.70;;;;;;5058177;28;20123;-69
2023/12/15 05:59:56;;;;;;;8.13;1.88;;;30.30;68.70;;;;;;5054819;28;20032;-69
2023/12/15 06:02:23;;;;;;;7.78;1.88;;;30.40;68.60;;;;;;5055074;28;20025;-69
2023/12/15 06:04:51;;;;;;;15.98;2.10;;;30.30;68.50;;;;;;5058693;28;20083;-69
2023/12/15 06:07:19;;;;;;;10.73;1.90;;;30.10;69.40;;;;;;5053566;28;20513;-69
2023/12/15 06:09:47;;;;;;;11.93;1.75;;;30.20;68.90;;;;;;5057610;28;20028;-69
2023/12/15 06:12:16;;;;;;;11.65;2.63;;;30.10;68.60;;;;;;5057542;28;20025;-69
2023/12/15 06:14:43;;;;;;;7.60;1.67;;;30.00;68.40;;;;;;5049933;28;20029;-68
2023/12/15 06:17:11;;;;;;;12.38;1.80;;;30.00;68.60;;;;;;5046005;28;20020;-67
2023/12/15 06:19:41;;;;;;;10.07;1.92;;;30.00;68.70;;;;;;5034760;28;20128;-68
2023/12/15 06:22:09;;;;;;;9.98;2.08;;;30.20;68.10;;;;;;5051655;28;20032;-68
2023/12/15 06:24:36;;;;;;;9.27;2.38;;;30.20;67.20;;;;;;5052438;28;20478;-70
2023/12/15 06:27:04;;;;;;;9.73;1.67;;;29.70;68.10;;;;;;5055615;28;20025;-68
2023/12/15 06:29:32;;;;;;;8.30;2.03;;;29.50;67.70;;;;;;5049818;28;20021;-70
2023/12/15 06:32:03;;;;;;;9.32;1.85;;;29.10;68.30;;;;;;5035865;28;20033;-68
2023/12/15 06:34:30;;;;;;;9.70;1.92;;;29.20;68.90;;;;;;5051564;28;20021;-70
2023/12/15 06:36:58;;;;;;;6.70;1.88;;;29.10;68.90;;;;;;5055173;28;20068;-69
2023/12/15 06:39:25;;;;;;;8.93;2.08;;;29.10;69.30;;;;;;5044714;28;20121;-70
2023/12/15 06:41:53;;;;;;;10.98;1.88;;;29.10;69.30;;;;;;5048424;28;20833;-69
2023/12/15 06:44:24;;;;;;;7.28;1.92;;;29.10;69.10;;;;;;5049373;28;20028;-70
2023/12/15 06:46:52;;;;;;;10.40;1.75;;;29.20;69.20;;;;;;5051687;28;20142;-69
2023/12/15 06:49:19;;;;;;;12.57;1.80;;;29.40;69.30;;;;;;5033583;28;20035;-70
2023/12/15 06:51:47;;;;;;;8.48;1.67;;;29.30;69.10;;;;;;5045677;28;20044;-69
2023/12/15 06:54:33;;;;;;;12.85;1.67;;;29.30;69.30;;;;;;5033932;28;20391;-68
2023/12/15 06:57:02;;;;;;;17.25;2.92;;;29.00;69.70;;;;;;5030092;28;20128;-69
2023/12/15 06:59:29;;;;;;;9.60;2.05;;;29.10;69.90;;;;;;5047028;28;20023;-67
2023/12/15 07:01:57;;;;;;;10.45;1.70;;;29.10;69.30;;;;;;5041495;28;20028;-69
2023/12/15 07:04:24;;;;;;;8.02;1.63;;;28.90;68.80;;;;;;5047751;28;20115;-70
2023/12/15 07:06:53;;;;;;;6.50;1.83;;;28.60;69.20;;;;;;5050573;28;20067;-69
2023/12/15 07:09:20;;;;;;;7.18;1.50;;;28.20;70.30;;;;;;5048158;28;20024;-71
2023/12/15 07:11:48;;;;;;;9.63;1.50;;;28.20;70.40;;;;;;5055678;28;20027;-71
2023/12/15 07:14:15;;;;;;;9.40;1.60;;;28.40;70.30;;;;;;5051474;28;20060;-71
2023/12/15 07:16:43;;;;;;;8.38;1.92;;;28.30;70.10;;;;;;5030992;28;20021;-70
2023/12/15 07:19:10;;;;;;;9.07;1.52;;;28.00;70.90;;;;;;5053221;28;20429;-69
2023/12/15 07:21:38;;;;;;;8.75;1.85;;;28.00;71.10;;;;;;5029752;28;20040;-69
2023/12/15 07:24:06;;;;;;;5.63;1.50;;;28.00;71.60;;;;;;5050226;28;20040;-69
2023/12/15 07:26:33;;;;;;;12.90;1.75;;;28.00;72.00;;;;;;5055614;28;20021;-69
2023/12/15 07:29:00;;;;;;;7.35;1.55;;;28.10;72.10;;;;;;5051234;28;20040;-70
2023/12/15 07:31:28;;;;;;;10.88;2.08;;;28.00;72.30;;;;;;5037811;28;20425;-69
2023/12/15 07:33:55;;;;;;;11.68;2.17;;;27.70;73.50;;;;;;5049425;28;20422;-70
2023/12/15 07:36:23;;;;;;;14.02;2.17;;;27.50;74.70;;;;;;5029158;28;20116;-70
2023/12/15 07:38:50;;;;;;;16.38;2.20;;;27.60;75.40;;;;;;5050708;28;20916;-69
2023/12/15 07:41:17;;;;;;;17.25;2.50;;;27.70;75.20;;;;;;5046067;28;20029;-69
2023/12/15 07:43:45;;;;;;;16.92;2.25;;;27.60;76.00;;;;;;5027007;28;20029;-69
2023/12/15 07:46:19;;;;;;;11.80;2.10;;;27.40;76.80;;;;;;5052267;28;20123;-70
2023/12/15 07:48:47;;;;;;;12.43;2.20;;;27.50;77.60;;;;;;5059206;28;20389;-69
2023/12/15 07:51:19;;;;;;;13.25;2.78;;;27.20;78.70;;;;;;5056823;28;20045;-70
2023/12/15 07:53:47;;;;;;;14.32;2.58;;;27.10;79.10;;;;;;5061394;28;20110;-69
2023/12/15 07:56:25;;;;;;;12.23;2.38;;;26.90;80.20;;;;;;5054407;28;20035;-68
2023/12/15 07:58:54;;;;;;;15.38;2.25;;;26.80;80.70;;;;;;5060736;28;20370;-69
2023/12/15 08:01:25;;;;;;;11.95;2.35;;;26.80;81.60;;;;;;5056618;28;20071;-69
2023/12/15 08:03:53;;;;;;;13.05;2.15;;;26.80;81.70;;;;;;5051358;28;20063;-69
2023/12/15 08:06:20;;;;;;;14.30;2.08;;;27.00;81.40;;;;;;5055167;28;20071;-69
2023/12/15 08:08:49;;;;;;;15.25;2.60;;;26.80;81.60;;;;;;5058589;28;20424;-68
2023/12/15 08:11:16;;;;;;;11.10;2.65;;;26.80;82.00;;;;;;5054061;28;20024;-68
2023/12/15 08:13:44;;;;;;;11.43;1.92;;;26.90;82.30;;;;;;5053137;28;20028;-69
2023/12/15 08:16:12;;;;;;;10.88;1.92;;;26.90;82.00;;;;;;5050818;28;20419;-69
2023/12/15 08:18:41;;;;;;;13.52;3.22;;;26.50;83.40;;;;;;5054458;28;20025;-69
2023/12/15 08:21:08;;;;;;;11.43;2.65;;;26.60;83.60;;;;;;5055035;28;20361;-69
2023/12/15 08:23:36;;;;;;;15.93;2.00;;;26.30;84.20;;;;;;5050427;28;20025;-71
2023/12/15 08:26:03;;;;;;;12.20;2.00;;;26.00;85.50;;;;;;5045975;28;20155;-69
2023/12/15 08:28:31;;;;;;;19.13;3.10;;;25.80;86.30;;;;;;5050486;28;20146;-69
2023/12/15 08:30:58;;;;;;;12.25;1.92;;;25.80;87.50;;;;;;5048587;28;20421;-69
2023/12/15 08:33:27;;;;;;;13.30;2.47;;;26.10;86.90;;;;;;5052163;28;20040;-70
2023/12/15 08:35:55;;;;;;;10.68;1.90;;;26.10;86.80;;;;;;5053610;28;20112;-70
2023/12/15 08:38:24;;;;;;;14.23;2.05;;;26.10;87.00;;;;;;5050078;28;20033;-72
2023/12/15 08:40:54;;;;;;;16.27;2.33;;;26.00;87.40;;;;;;5047687;28;20128;-69
2023/12/15 08:43:21;;;;;;;14.25;2.85;;;25.70;88.60;;;;;;5050755;28;20774;-69
2023/12/15 08:45:48;;;;;;;11.43;2.13;;;25.70;88.70;;;;;;5047088;28;20386;-69
2023/12/15 08:48:16;;;;;;;17.27;2.30;;;25.90;88.40;;;;;;5049481;28;20044;-69
2023/12/15 08:50:43;;;;;;;15.02;2.35;;;25.90;87.90;;;;;;5050610;28;20113;-69
2023/12/15 08:53:12;;;;;;;12.82;2.15;;;25.60;88.70;;;;;;5053112;28;20025;-69
2023/12/15 08:55:40;;;;;;;13.98;2.45;;;25.30;90.10;;;;;;5052132;28;20043;-68
2023/12/15 08:58:07;;;;;;;15.13;2.20;;;25.30;90.20;;;;;;5028265;28;20798;-69
2023/12/15 09:00:35;;;;;;;14.13;2.30;;;25.20;90.50;;;;;;5048971;28;20457;-68
2023/12/15 09:03:03;;;;;;;11.07;2.33;;;25.10;90.60;;;;;;5051776;28;20036;-70
2023/12/15 09:05:32;;;;;;;12.27;2.40;;;25.10;90.80;;;;;;5061477;28;20132;-69
2023/12/15 09:08:00;;;;;;;15.50;2.33;;;25.10;91.00;;;;;;5053147;28;20024;-72
2023/12/15 09:10:33;;;;;;;14.02;2.20;;;25.30;91.20;;;;;;5055034;28;20519;-70
2023/12/15 09:13:02;;;;;;;15.63;2.53;;;25.30;91.00;;;;;;5059924;28;20036;-70
2023/12/15 09:15:30;;;;;;;10.35;1.70;;;25.40;90.80;;;;;;5045968;28;20063;-71
2023/12/15 09:17:58;;;;;;;15.00;2.30;;;25.10;91.20;;;;;;5052147;28;20032;-70
2023/12/15 09:20:25;;;;;;;15.10;3.90;;;25.10;91.50;;;;;;5054309;28;20110;-69
2023/12/15 09:22:54;;;;;;;12.70;1.98;;;24.90;91.90;;;;;;5052043;28;20157;-69
2023/12/15 09:25:21;;;;;;;13.40;2.38;;;24.80;91.90;;;;;;5054321;28;20513;-69
2023/12/15 09:27:49;;;;;;;13.45;2.55;;;24.80;92.10;;;;;;5054823;28;20468;-69
2023/12/15 09:30:17;;;;;;;13.55;2.33;;;24.70;92.40;;;;;;5054753;28;20020;-70
2023/12/15 09:32:44;;;;;;;12.35;2.22;;;24.60;92.70;;;;;;5056619;28;20025;-69
2023/12/15 09:35:11;;;;;;;14.45;2.35;;;24.60;92.80;;;;;;5035914;28;20021;-68
2023/12/15 09:37:39;;;;;;;10.35;1.85;;;24.70;92.70;;;;;;5052510;28;20016;-69
2023/12/15 09:40:07;;;;;;;12.30;2.10;;;24.70;92.80;;;;;;5055607;28;20025;-69
2023/12/15 09:42:34;;;;;;;10.45;2.58;;;24.60;93.10;;;;;;5058503;28;20554;-69
2023/12/15 09:45:02;;;;;;;10.40;2.20;;;24.50;93.30;;;;;;5060726;28;20060;-70
2023/12/15 09:47:31;;;;;;;13.05;2.25;;;24.50;93.40;;;;;;5050382;28;20716;-70
2023/12/15 09:50:03;;;;;;;18.48;2.85;;;24.40;93.60;;;;;;5051661;28;20048;-71
2023/12/15 09:52:36;;;;;;;15.00;1.95;;;24.30;93.80;;;;;;5056230;28;20024;-69
2023/12/15 09:55:06;;;;;;;12.95;2.15;;;24.40;93.80;;;;;;5051974;28;20091;-69
2023/12/15 09:57:34;;;;;;;16.65;2.72;;;24.30;94.00;;;;;;5050871;28;20025;-68
2023/12/15 10:00:03;;;;;;;14.98;2.88;;;24.30;94.00;;;;;;5054871;28;20052;-69
2023/12/15 10:02:30;;;;;;;18.02;2.38;;;24.40;94.00;;;;;;5047868;28;20369;-69
2023/12/15 10:04:57;;;;;;;21.20;3.45;;;24.40;94.10;;;;;;5053843;28;20055;-69
2023/12/15 10:07:25;;;;;;;12.75;2.78;;;24.40;94.10;;;;;;5051147;28;20040;-70
2023/12/15 10:09:53;;;;;;;15.55;2.95;;;24.40;94.10;;;;;;5046064;28;20357;-69
2023/12/15 10:12:21;;;;;;;11.50;2.60;;;24.30;94.30;;;;;;5059950;28;20086;-70
2023/12/15 10:14:49;;;;;;;15.20;2.92;;;24.30;94.40;;;;;;5039713;28;20075;-69
2023/12/15 10:17:16;;;;;;;15.20;3.08;;;24.30;94.30;;;;;;5048003;28;20033;-69
2023/12/15 10:19:43;;;;;;;10.25;3.17;;;24.30;94.50;;;;;;5050723;28;20021;-70
2023/12/15 10:22:11;;;;;;;14.80;2.75;;;24.20;94.70;;;;;;5047817;28;20036;-70
2023/12/15 10:24:39;;;;;;;15.70;2.20;;;24.20;94.80;;;;;;5052271;28;20112;-70
2023/12/15 10:27:08;;;;;;;17.33;2.88;;;24.20;94.80;;;;;;5041592;28;20025;-72
2023/12/15 10:29:39;;;;;;;15.57;2.45;;;24.20;94.80;;;;;;5046881;28;20029;-74
2023/12/15 10:32:06;;;;;;;9.68;2.30;;;24.00;95.00;;;;;;5051804;28;20086;-70
2023/12/15 10:34:34;;;;;;;17.90;2.38;;;24.10;95.00;;;;;;5028775;28;20529;-70
2023/12/15 10:37:01;;;;;;;14.43;2.50;;;24.10;95.20;;;;;;5047999;28;20021;-71
2023/12/15 10:39:29;;;;;;;18.42;3.67;;;24.10;95.20;;;;;;5050777;28;20495;-68
2023/12/15 10:41:59;;;;;;;15.82;2.60;;;24.20;95.10;;;;;;5041502;28;20033;-69
2023/12/15 10:44:27;;;;;;;11.88;2.92;;;24.20;95.10;;;;;;5047133;28;20022;-70
2023/12/15 10:46:54;;;;;;;21.55;3.75;;;24.00;95.20;;;;;;5052083;28;20033;-71
2023/12/15 10:49:22;;;;;;;14.35;3.13;;;23.80;95.70;;;;;;5047719;28;20025;-72
2023/12/15 10:51:50;;;;;;;24.35;3.00;;;23.70;95.80;;;;;;5047940;28;20477;-72
2023/12/15 10:54:18;;;;;;;16.25;3.15;;;23.80;95.80;;;;;;5035917;28;20037;-70
2023/12/15 10:56:47;;;;;;;12.23;3.30;;;23.70;95.90;;;;;;5051791;28;20492;-68
2023/12/15 10:59:18;;;;;;;14.70;3.28;;;23.80;95.90;;;;;;5054702;28;20140;-69
2023/12/15 11:01:47;;;;;;;27.40;5.60;;;23.90;95.80;;;;;;5047176;28;20040;-70
2023/12/15 11:04:32;;;;;;;20.25;2.95;;;23.80;95.90;;;;;;5053883;28;20465;-69
2023/12/15 11:07:00;;;;;;;19.02;3.38;;;23.90;95.50;;;;;;5056041;28;20036;-69
2023/12/15 11:09:35;;;;;;;16.80;3.42;;;23.80;95.90;;;;;;5052522;28;20538;-69
2023/12/15 11:12:29;;;;;;;20.42;2.75;;;23.80;95.90;;;;;;5055889;28;20064;-69
2023/12/15 11:15:05;;;;;;;17.23;3.47;;;23.80;96.10;;;;;;5052867;28;20474;-70
2023/12/15 11:17:33;;;;;;;18.13;2.60;;;23.70;96.20;;;;;;5050759;28;20054;-70
2023/12/15 11:20:22;;;;;;;14.18;2.53;;;23.70;96.20;;;;;;5054335;28;20470;-68
2023/12/15 11:22:57;;;;;;;16.90;2.67;;;23.70;96.20;;;;;;5047101;28;20485;-69
2023/12/15 11:25:32;;;;;;;13.73;2.38;;;23.40;96.80;;;;;;5045528;28;20045;-69
2023/12/15 11:28:00;;;;;;;18.73;2.78;;;23.50;96.80;;;;;;5048838;28;20052;-70
2023/12/15 11:30:40;;;;;;;13.13;2.35;;;23.30;97.00;;;;;;5031054;28;20489;-68
2023/12/15 11:33:41;;;;;;;13.82;2.92;;;23.40;97.10;;;;;;5036473;28;20078;-68
2023/12/15 11:36:10;;;;;;;11.68;2.85;;;23.40;97.00;;;;;;5053872;28;20370;-69
2023/12/15 11:38:38;;;;;;;17.00;2.95;;;23.50;97.00;;;;;;5051109;28;20029;-69
2023/12/15 11:41:07;;;;;;;16.30;2.42;;;23.50;97.00;;;;;;5050787;28;20373;-70
2023/12/15 11:43:39;;;;;;;16.38;3.10;;;23.50;97.10;;;;;;5046631;28;20037;-68
2023/12/15 11:46:07;;;;;;;13.98;2.88;;;23.40;97.10;;;;;;5031099;28;20037;-69
2023/12/15 11:48:35;;;;;;;19.38;2.60;;;23.20;97.30;;;;;;5048273;28;20153;-70
2023/12/15 11:51:04;;;;;;;14.68;2.95;;;23.20;97.40;;;;;;5049302;28;20052;-71
2023/12/15 11:53:32;;;;;;;23.52;3.70;;;23.30;97.50;;;;;;5035001;28;20497;-69
2023/12/15 11:56:01;;;;;;;18.23;3.13;;;23.10;97.70;;;;;;5053234;28;20465;-67
2023/12/15 11:58:29;;;;;;;19.52;3.05;;;23.10;97.80;;;;;;5052186;28;20029;-68
2023/12/15 12:00:56;;;;;;;15.52;3.10;;;23.20;97.60;;;;;;5050395;28;20115;-68
2023/12/15 12:03:25;;;;;;;19.95;3.83;;;23.10;97.90;;;;;;5029375;28;20036;-68
2023/12/15 12:05:56;;;;;;;12.48;2.72;;;23.10;97.90;;;;;;5046980;28;20033;-69
2023/12/15 12:08:23;;;;;;;13.48;2.88;;;23.10;97.80;;;;;;5049542;28;20370;-69
2023/12/15 12:10:58;;;;;;;10.43;2.63;;;23.30;97.60;;;;;;5026013;28;20615;-69
2023/12/15 12:13:39;;;;;;;17.20;3.03;;;23.40;97.50;;;;;;5047290;28;20040;-69
2023/12/15 12:16:07;;;;;;;13.75;3.63;;;23.40;97.50;;;;;;5043879;28;20029;-69
2023/12/15 12:18:35;;;;;;;21.15;2.85;;;23.40;97.40;;;;;;5053543;28;20020;-69
2023/12/15 12:21:07;;;;;;;22.52;3.03;;;23.40;97.40;;;;;;5048398;28;20107;-70
2023/12/15 12:23:35;;;;;;;14.20;3.38;;;23.40;97.40;;;;;;5048955;28;20484;-69
2023/12/15 12:26:02;;;;;;;22.75;3.47;;;23.50;97.40;;;;;;5049415;28;20494;-69
2023/12/15 12:28:48;;;;;;;17.30;4.28;;;23.40;97.60;;;;;;5024819;28;20040;-69
2023/12/15 12:31:16;;;;;;;11.80;3.33;;;23.30;97.50;;;;;;5050834;28;20032;-69
2023/12/15 12:33:43;;;;;;;15.27;3.45;;;23.10;97.90;;;;;;5054830;28;20033;-69
2023/12/15 12:36:11;;;;;;;15.43;3.40;;;23.00;98.20;;;;;;5059996;28;20027;-69
2023/12/15 12:38:38;;;;;;;15.15;3.60;;;22.90;98.30;;;;;;5050842;28;20102;-69
2023/12/15 12:41:06;;;;;;;11.75;3.47;;;22.80;98.50;;;;;;5048175;28;20027;-69
2023/12/15 12:43:34;;;;;;;21.00;3.38;;;22.80;98.60;;;;;;5052840;28;20032;-69
2023/12/15 12:46:01;;;;;;;20.70;3.63;;;22.80;98.70;;;;;;5056826;28;20040;-68